Route Details

Aircraft Information
Group: North America Fleet
Types: B738, B752, B762, B763
Route Data
Distance: 316nm
Duration: 1h 35m
Origin METAR: KONT 152353Z 25011G18KT 10SM FEW120 FEW180 36/13 A2978 RMK AO2 SLP062 CB DSNT E AND SE T03560133 10367 20311 56016
Dest. METAR: KSFO 152356Z 31017KT 10SM FEW011 24/12 A2980 RMK AO2 SLP092 T02440122 10244 20206 56015
Freight Data
(for Aug 16, 2022)
Load Factor:
74%
Manifested Cargo: 57,907lbs
Financial History
Total Freight: 110,826lbs
Average Load: 0lbs/flt
Fuel Used: 20,874lbs
Avg. Fuel Used: 0lbs/flt
Fuel Expense: $12,052
Avg. Fuel Expense: $0
Avg. Fuel Cost: $0/lbs
Total Gross Income: $272,632
Pilot Pay: $657
Total Expenses: $55,816
Total Revenue: $203,479
Average Revenue: $0

Capitol Logistics 447




KONT
Ontario International Airport
Ontario, California
KSFO
San Francisco International Airport
San Francisco, California

Activity Log

Date Flight Route Aircraft Duration
08/12/2022 CPX447 SNSHN5 COREZ DCT MAKRS DCT SERFR SERFR4 B738 1h 13m
07/14/2022 CPX447 SNSHN5 COREZ DCT MAKRS DCT SERFR SERFR4 B738 1h 12m
07/13/2022 CPX447 SNSHN5 COREZ MAKRS SERFR SERFR4 B738 1h 01m